Relevés horaires Jungfraujoch (Suisse)


Relevés horaires à Jungfraujoch - Lundi 05 Janv. 2004
Heure UTC1 Température [°C] Vent [km/h] Hum. [%] Pres.4 [hPa] Visi. [Km] Nébu. [octa] Préc.5 [mm] Cond.
2m. Res. Ros. Dir.2 Vit. Moy. Raf.3
23:00 -10.8 -21.7 -12.1 NO 38.9 -- -- 90 700 -- -- -- --
22:00 -11.1 -22.5 -12.4 NO 42.6 -- -- 90 700 -- -- -- --
21:00 -11.8 -23 -13.2 ONO 38.9 40.7 61.1 89 700(1.0/3h) -- -- -- --
20:00 -12.0 -23.1 -13.4 ONO 37.0 -- -- 89 700 -- -- -- --
19:00 -12.4 -23.1 -13.9 NO 33.3 -- -- 88 700 -- -- -- --
18:00 -13.3 -24.8 -14.9 ONO 37.0 50.0 81.5 88 700(0.2/3h) 0 -- -- Neige modérée continue
17:00 -13.3 -24.1 -14.9 NO 31.5 -- -- 88 700 -- -- -- --
16:00 -13.7 -24.6 -15.3 NO 31.5 -- -- 88 700 -- -- -- --
15:00 -14.0 -25.2 -15.6 ONO 33.3 57.4 87.0 88 700(0.5/3h) 0 -- -- Légère neige continue
14:00 -14.1 -26.8 -15.8 ONO 44.4 -- -- 87 700 -- -- -- --
13:00 -14.3 -26.1 -16.0 NO 37.0 -- -- 87 700 -- -- -- --
12:00 -13.4 -25.2 -15.0 NO 38.9 64.8 105.6 88 700(1.5/3h) 0.1 -- -- Poudrerie intense au-dessus du niveau des yeux
11:00 -14.2 -27.3 -15.9 ONO 48.2 -- -- 87 700 -- -- -- --
10:00 -14.8 -27.7 -16.5 NO 44.4 -- -- 87 700 -- -- -- --
09:00 -14.3 -29 -16.0 ONO 64.8 64.8 105.6 87 700(0.4/3h) 0 -- -- Poudrerie intense au-dessus du niveau des yeux
08:00 -14.3 -28.7 -16.0 ONO 61.1 -- -- 87 700 -- -- -- --
07:00 -17.3 -29.6 -19.3 NO 33.3 -- -- 84 700 -- -- -- --
06:00 -16.7 -29.6 -19.2 ONO 38.9 57.4 85.2 81 700(0.0/3h) 5 8/8 -- Poudrerie légère à modérée au-dessous du niveau de yeux
05:00 -15.5 -28.4 -32.5 ONO 42.6 -- -- 22 700 -- -- -- --
04:00 -15.6 -27.1 -31.2 NO 31.5 -- -- 25 700 -- -- -- --
03:00 -13.8 -26.2 -29.2 NO 42.6 57.4 85.2 26 700(0.4/3h) -- -- -- --
02:00 -13.4 -26.4 -28.9 NO 50.0 -- -- 26 700 -- -- -- --
01:00 -13.7 -25.8 -29.0 ONO 40.7 -- -- 26 700 -- -- -- --
00:00 -13.8 -25.7 -30.9 ONO 38.9 51.9 85.2 22 700(0.4/3h) -- -- -- --

1 Coordinated Universal Time. Actuellement il est 00:00 locale et 22:00 UTC.

2 Le vent souffle depuis la direction indiquée vers la direction oposée.

3 Les rafales max. sont disponible 40 min après l'heure du relevé.

4 Pour les stations d'altitude (plus de 600m) le géopotentiel du niveau le plus proche de la pression obligatoire est indiqué.

5 Les stations disposant d'un diffuseur peuvent indiquer "trace". Cela signifie que des précipitations ont touchés le sol mais que la quantité est inférieure à 0.1 mm.

Copyright

Les données affichées sur cette page sont la propriété exclusive de Météo Suisse.

Récapitulatif de la journée
Température [°C] Vent [km/h] Ensoleillement4 [h] Precipitations totale5 [mm] Pression [Hpa]
Min1 Max.2 Moy.3 Max. Min Max.
-17.8 -13.2 55.6 105.6 0 h 0 min 0 700.0 700.0

1 Température minimale relevée entre 18:00 UTC la veille et 18:00 UTC le jour donné.

2 Température maximale relevée entre 06:00 UTC le jour donné et 06:00 UTC le lendemain.

3 Vent moyen de la journée basé sur les relevés horaires.

4 Ensoleillement en heures relevé entre 06:00 UTC la veille et 06:00 UTC le jour donné.

5 Précipitations totales tombées entre 06:00 UTC la jour donné et 06:00 UTC le lendemain.

Graphiques horaires